sensor_id;sensor_type;location;lat;lon;timestamp;P1;durP1;ratioP1;P2;durP2;ratioP2
12267;SDS011;6196;48.398;11.736;2022-07-29T00:00:01;3.70;;;2.90;;
12267;SDS011;6196;48.398;11.736;2022-07-29T00:02:31;3.50;;;3.03;;
12267;SDS011;6196;48.398;11.736;2022-07-29T00:04:58;3.20;;;2.90;;
12267;SDS011;6196;48.398;11.736;2022-07-29T00:07:25;3.10;;;2.70;;
12267;SDS011;6196;48.398;11.736;2022-07-29T00:09:52;2.80;;;2.60;;
12267;SDS011;6196;48.398;11.736;2022-07-29T00:12:20;3.40;;;2.57;;
12267;SDS011;6196;48.398;11.736;2022-07-29T00:14:53;3.00;;;2.53;;
12267;SDS011;6196;48.398;11.736;2022-07-29T00:17:21;2.97;;;2.77;;
12267;SDS011;6196;48.398;11.736;2022-07-29T00:19:49;2.57;;;2.33;;
12267;SDS011;6196;48.398;11.736;2022-07-29T00:22:16;5.53;;;2.43;;
12267;SDS011;6196;48.398;11.736;2022-07-29T00:24:43;3.23;;;2.70;;
12267;SDS011;6196;48.398;11.736;2022-07-29T00:27:12;4.03;;;2.93;;
12267;SDS011;6196;48.398;11.736;2022-07-29T00:29:39;4.53;;;2.63;;
12267;SDS011;6196;48.398;11.736;2022-07-29T00:32:05;3.40;;;2.60;;
12267;SDS011;6196;48.398;11.736;2022-07-29T00:34:33;3.17;;;2.87;;
12267;SDS011;6196;48.398;11.736;2022-07-29T00:37:18;2.50;;;2.30;;
12267;SDS011;6196;48.398;11.736;2022-07-29T00:39:45;2.90;;;2.60;;
12267;SDS011;6196;48.398;11.736;2022-07-29T00:42:11;3.33;;;2.70;;
12267;SDS011;6196;48.398;11.736;2022-07-29T00:44:39;3.10;;;2.80;;
12267;SDS011;6196;48.398;11.736;2022-07-29T00:47:08;2.50;;;2.30;;
12267;SDS011;6196;48.398;11.736;2022-07-29T00:49:37;2.83;;;2.63;;
12267;SDS011;6196;48.398;11.736;2022-07-29T00:52:07;2.80;;;2.60;;
12267;SDS011;6196;48.398;11.736;2022-07-29T00:54:36;2.87;;;2.60;;
12267;SDS011;6196;48.398;11.736;2022-07-29T00:57:10;2.53;;;2.33;;
12267;SDS011;6196;48.398;11.736;2022-07-29T00:59:38;3.50;;;3.20;;
12267;SDS011;6196;48.398;11.736;2022-07-29T01:02:05;3.23;;;2.80;;
12267;SDS011;6196;48.398;11.736;2022-07-29T01:04:32;3.57;;;2.90;;
12267;SDS011;6196;48.398;11.736;2022-07-29T01:07:02;3.57;;;3.00;;
12267;SDS011;6196;48.398;11.736;2022-07-29T01:09:34;3.27;;;2.80;;
12267;SDS011;6196;48.398;11.736;2022-07-29T01:12:15;3.07;;;2.77;;
12267;SDS011;6196;48.398;11.736;2022-07-29T01:14:48;3.30;;;3.00;;
12267;SDS011;6196;48.398;11.736;2022-07-29T01:17:17;3.27;;;3.07;;
12267;SDS011;6196;48.398;11.736;2022-07-29T01:19:58;4.87;;;3.53;;
12267;SDS011;6196;48.398;11.736;2022-07-29T01:25:06;3.50;;;3.20;;
12267;SDS011;6196;48.398;11.736;2022-07-29T01:28:01;3.23;;;3.00;;
12267;SDS011;6196;48.398;11.736;2022-07-29T01:30:37;3.60;;;3.30;;
12267;SDS011;6196;48.398;11.736;2022-07-29T01:33:10;3.30;;;3.00;;
12267;SDS011;6196;48.398;11.736;2022-07-29T01:36:04;4.87;;;3.40;;
12267;SDS011;6196;48.398;11.736;2022-07-29T01:38:38;3.03;;;2.70;;
12267;SDS011;6196;48.398;11.736;2022-07-29T01:41:09;3.13;;;2.83;;
12267;SDS011;6196;48.398;11.736;2022-07-29T01:43:59;3.03;;;2.50;;
12267;SDS011;6196;48.398;11.736;2022-07-29T01:46:39;2.60;;;2.30;;
12267;SDS011;6196;48.398;11.736;2022-07-29T01:49:15;3.67;;;2.80;;
12267;SDS011;6196;48.398;11.736;2022-07-29T01:51:49;3.00;;;2.40;;
12267;SDS011;6196;48.398;11.736;2022-07-29T01:54:28;3.40;;;2.47;;
12267;SDS011;6196;48.398;11.736;2022-07-29T01:57:04;2.80;;;2.50;;
12267;SDS011;6196;48.398;11.736;2022-07-29T01:59:34;2.67;;;2.47;;
12267;SDS011;6196;48.398;11.736;2022-07-29T02:02:03;3.37;;;2.30;;
12267;SDS011;6196;48.398;11.736;2022-07-29T02:04:35;2.80;;;2.60;;
12267;SDS011;6196;48.398;11.736;2022-07-29T02:07:05;5.30;;;2.40;;
12267;SDS011;6196;48.398;11.736;2022-07-29T02:09:37;2.80;;;2.57;;
12267;SDS011;6196;48.398;11.736;2022-07-29T02:12:05;3.13;;;2.20;;
12267;SDS011;6196;48.398;11.736;2022-07-29T02:14:36;2.93;;;2.63;;
12267;SDS011;6196;48.398;11.736;2022-07-29T02:17:08;2.80;;;2.50;;
12267;SDS011;6196;48.398;11.736;2022-07-29T02:19:37;3.87;;;2.50;;
12267;SDS011;6196;48.398;11.736;2022-07-29T02:22:05;2.53;;;2.33;;
12267;SDS011;6196;48.398;11.736;2022-07-29T02:24:34;3.00;;;2.80;;
12267;SDS011;6196;48.398;11.736;2022-07-29T02:27:03;2.60;;;2.40;;
12267;SDS011;6196;48.398;11.736;2022-07-29T02:29:30;2.80;;;2.60;;
12267;SDS011;6196;48.398;11.736;2022-07-29T02:31:59;2.70;;;2.20;;
12267;SDS011;6196;48.398;11.736;2022-07-29T02:34:28;2.63;;;2.40;;
12267;SDS011;6196;48.398;11.736;2022-07-29T02:36:56;2.93;;;2.60;;
12267;SDS011;6196;48.398;11.736;2022-07-29T02:39:23;3.30;;;2.40;;
12267;SDS011;6196;48.398;11.736;2022-07-29T02:41:55;2.87;;;2.67;;
12267;SDS011;6196;48.398;11.736;2022-07-29T02:44:29;2.77;;;2.57;;
12267;SDS011;6196;48.398;11.736;2022-07-29T02:55:22;2.47;;;2.27;;
12267;SDS011;6196;48.398;11.736;2022-07-29T02:58:08;2.50;;;2.30;;
12267;SDS011;6196;48.398;11.736;2022-07-29T03:00:44;3.07;;;2.70;;
12267;SDS011;6196;48.398;11.736;2022-07-29T03:03:15;4.27;;;2.40;;
12267;SDS011;6196;48.398;11.736;2022-07-29T03:05:44;2.40;;;2.20;;
12267;SDS011;6196;48.398;11.736;2022-07-29T03:08:11;3.57;;;2.80;;
12267;SDS011;6196;48.398;11.736;2022-07-29T03:10:42;3.00;;;2.60;;
12267;SDS011;6196;48.398;11.736;2022-07-29T03:13:11;2.83;;;2.40;;
12267;SDS011;6196;48.398;11.736;2022-07-29T03:15:39;2.93;;;2.57;;
12267;SDS011;6196;48.398;11.736;2022-07-29T03:18:09;3.27;;;2.50;;
12267;SDS011;6196;48.398;11.736;2022-07-29T03:20:37;2.90;;;2.60;;
12267;SDS011;6196;48.398;11.736;2022-07-29T03:23:04;2.97;;;2.30;;
12267;SDS011;6196;48.398;11.736;2022-07-29T03:25:31;4.67;;;2.97;;
12267;SDS011;6196;48.398;11.736;2022-07-29T03:27:58;3.20;;;2.80;;
12267;SDS011;6196;48.398;11.736;2022-07-29T03:30:25;3.20;;;2.90;;
12267;SDS011;6196;48.398;11.736;2022-07-29T03:32:52;3.10;;;2.80;;
12267;SDS011;6196;48.398;11.736;2022-07-29T03:35:21;3.50;;;2.60;;
12267;SDS011;6196;48.398;11.736;2022-07-29T03:37:48;3.37;;;2.70;;
12267;SDS011;6196;48.398;11.736;2022-07-29T03:40:22;3.23;;;2.93;;
12267;SDS011;6196;48.398;11.736;2022-07-29T03:43:11;3.07;;;2.63;;
12267;SDS011;6196;48.398;11.736;2022-07-29T03:45:42;2.80;;;2.60;;
12267;SDS011;6196;48.398;11.736;2022-07-29T03:48:15;3.20;;;2.50;;
12267;SDS011;6196;48.398;11.736;2022-07-29T03:50:46;3.23;;;2.93;;
12267;SDS011;6196;48.398;11.736;2022-07-29T03:53:13;3.97;;;2.67;;
12267;SDS011;6196;48.398;11.736;2022-07-29T03:55:41;2.83;;;2.63;;
12267;SDS011;6196;48.398;11.736;2022-07-29T03:58:30;4.20;;;2.78;;
12267;SDS011;6196;48.398;11.736;2022-07-29T04:00:57;3.10;;;2.80;;
12267;SDS011;6196;48.398;11.736;2022-07-29T04:03:25;3.93;;;2.97;;
12267;SDS011;6196;48.398;11.736;2022-07-29T04:05:59;3.43;;;3.13;;
12267;SDS011;6196;48.398;11.736;2022-07-29T04:08:28;3.03;;;2.83;;
12267;SDS011;6196;48.398;11.736;2022-07-29T04:10:55;5.17;;;3.53;;
12267;SDS011;6196;48.398;11.736;2022-07-29T04:13:22;3.00;;;2.70;;
12267;SDS011;6196;48.398;11.736;2022-07-29T04:15:49;2.83;;;2.63;;
12267;SDS011;6196;48.398;11.736;2022-07-29T04:18:16;3.17;;;2.87;;
12267;SDS011;6196;48.398;11.736;2022-07-29T04:20:43;3.03;;;2.67;;
12267;SDS011;6196;48.398;11.736;2022-07-29T04:23:10;3.47;;;2.60;;
12267;SDS011;6196;48.398;11.736;2022-07-29T04:25:37;3.13;;;2.83;;
12267;SDS011;6196;48.398;11.736;2022-07-29T04:28:06;3.27;;;2.80;;
12267;SDS011;6196;48.398;11.736;2022-07-29T04:30:34;4.20;;;2.97;;
12267;SDS011;6196;48.398;11.736;2022-07-29T04:33:03;2.97;;;2.77;;
12267;SDS011;6196;48.398;11.736;2022-07-29T04:35:34;3.80;;;3.20;;
12267;SDS011;6196;48.398;11.736;2022-07-29T04:38:14;3.70;;;2.77;;
12267;SDS011;6196;48.398;11.736;2022-07-29T04:40:42;4.67;;;2.90;;
12267;SDS011;6196;48.398;11.736;2022-07-29T04:43:09;2.90;;;2.60;;
12267;SDS011;6196;48.398;11.736;2022-07-29T04:45:39;3.00;;;2.70;;
12267;SDS011;6196;48.398;11.736;2022-07-29T04:48:06;2.77;;;2.57;;
12267;SDS011;6196;48.398;11.736;2022-07-29T04:50:33;5.70;;;2.93;;
12267;SDS011;6196;48.398;11.736;2022-07-29T04:53:00;3.40;;;2.73;;
12267;SDS011;6196;48.398;11.736;2022-07-29T04:55:26;4.60;;;2.80;;
12267;SDS011;6196;48.398;11.736;2022-07-29T04:57:53;3.87;;;3.10;;
12267;SDS011;6196;48.398;11.736;2022-07-29T05:00:20;4.97;;;3.13;;
12267;SDS011;6196;48.398;11.736;2022-07-29T05:02:58;4.67;;;2.90;;
12267;SDS011;6196;48.398;11.736;2022-07-29T05:05:25;3.17;;;2.90;;
12267;SDS011;6196;48.398;11.736;2022-07-29T05:07:52;3.27;;;2.97;;
12267;SDS011;6196;48.398;11.736;2022-07-29T05:10:19;4.13;;;3.17;;
12267;SDS011;6196;48.398;11.736;2022-07-29T05:12:46;2.80;;;2.60;;
12267;SDS011;6196;48.398;11.736;2022-07-29T05:15:13;3.53;;;2.40;;
12267;SDS011;6196;48.398;11.736;2022-07-29T05:17:40;4.37;;;2.80;;
12267;SDS011;6196;48.398;11.736;2022-07-29T05:20:07;4.73;;;2.70;;
12267;SDS011;6196;48.398;11.736;2022-07-29T05:22:34;2.80;;;2.33;;
12267;SDS011;6196;48.398;11.736;2022-07-29T05:25:02;2.60;;;2.40;;
12267;SDS011;6196;48.398;11.736;2022-07-29T05:27:34;4.03;;;2.50;;
12267;SDS011;6196;48.398;11.736;2022-07-29T05:30:03;3.67;;;2.47;;
12267;SDS011;6196;48.398;11.736;2022-07-29T05:32:30;3.30;;;3.00;;
12267;SDS011;6196;48.398;11.736;2022-07-29T05:34:58;3.77;;;2.90;;
12267;SDS011;6196;48.398;11.736;2022-07-29T05:37:24;2.67;;;2.43;;
12267;SDS011;6196;48.398;11.736;2022-07-29T05:39:51;3.13;;;2.83;;
12267;SDS011;6196;48.398;11.736;2022-07-29T05:42:22;3.20;;;2.40;;
12267;SDS011;6196;48.398;11.736;2022-07-29T05:44:50;3.83;;;2.53;;
12267;SDS011;6196;48.398;11.736;2022-07-29T05:47:18;2.30;;;2.10;;
12267;SDS011;6196;48.398;11.736;2022-07-29T05:49:45;2.37;;;2.17;;
12267;SDS011;6196;48.398;11.736;2022-07-29T05:52:13;2.60;;;2.40;;
12267;SDS011;6196;48.398;11.736;2022-07-29T05:54:40;2.20;;;2.00;;
12267;SDS011;6196;48.398;11.736;2022-07-29T05:57:07;2.27;;;1.60;;
12267;SDS011;6196;48.398;11.736;2022-07-29T05:59:37;1.97;;;1.87;;
12267;SDS011;6196;48.398;11.736;2022-07-29T06:02:04;2.10;;;1.90;;
12267;SDS011;6196;48.398;11.736;2022-07-29T06:04:32;2.13;;;1.93;;
12267;SDS011;6196;48.398;11.736;2022-07-29T06:07:00;1.90;;;1.80;;
12267;SDS011;6196;48.398;11.736;2022-07-29T06:09:27;2.00;;;1.80;;
12267;SDS011;6196;48.398;11.736;2022-07-29T06:11:54;2.23;;;1.80;;
12267;SDS011;6196;48.398;11.736;2022-07-29T06:14:21;2.30;;;1.67;;
12267;SDS011;6196;48.398;11.736;2022-07-29T06:16:48;2.23;;;1.97;;
12267;SDS011;6196;48.398;11.736;2022-07-29T06:19:15;2.30;;;1.90;;
12267;SDS011;6196;48.398;11.736;2022-07-29T06:21:42;1.80;;;1.60;;
12267;SDS011;6196;48.398;11.736;2022-07-29T06:24:13;2.30;;;1.80;;
12267;SDS011;6196;48.398;11.736;2022-07-29T06:26:42;1.93;;;1.80;;
12267;SDS011;6196;48.398;11.736;2022-07-29T06:29:09;2.60;;;1.50;;
12267;SDS011;6196;48.398;11.736;2022-07-29T06:31:37;2.07;;;1.70;;
12267;SDS011;6196;48.398;11.736;2022-07-29T06:34:04;2.20;;;1.63;;
12267;SDS011;6196;48.398;11.736;2022-07-29T06:36:34;5.33;;;1.70;;
12267;SDS011;6196;48.398;11.736;2022-07-29T06:39:07;2.57;;;1.70;;
12267;SDS011;6196;48.398;11.736;2022-07-29T06:41:36;2.43;;;1.30;;
12267;SDS011;6196;48.398;11.736;2022-07-29T06:44:03;1.80;;;1.33;;
12267;SDS011;6196;48.398;11.736;2022-07-29T06:46:30;1.70;;;1.60;;
12267;SDS011;6196;48.398;11.736;2022-07-29T06:48:58;4.80;;;4.40;;
12267;SDS011;6196;48.398;11.736;2022-07-29T06:51:27;2.27;;;1.40;;
12267;SDS011;6196;48.398;11.736;2022-07-29T06:53:55;1.63;;;1.53;;
12267;SDS011;6196;48.398;11.736;2022-07-29T06:56:32;2.93;;;1.50;;
12267;SDS011;6196;48.398;11.736;2022-07-29T06:59:05;1.57;;;1.37;;
12267;SDS011;6196;48.398;11.736;2022-07-29T07:01:38;2.40;;;1.40;;
12267;SDS011;6196;48.398;11.736;2022-07-29T07:04:08;1.53;;;1.40;;
12267;SDS011;6196;48.398;11.736;2022-07-29T07:06:36;1.60;;;1.40;;
12267;SDS011;6196;48.398;11.736;2022-07-29T07:09:04;2.07;;;1.60;;
12267;SDS011;6196;48.398;11.736;2022-07-29T07:11:31;1.53;;;1.40;;
12267;SDS011;6196;48.398;11.736;2022-07-29T07:13:58;2.40;;;1.30;;
12267;SDS011;6196;48.398;11.736;2022-07-29T07:16:29;1.50;;;1.40;;
12267;SDS011;6196;48.398;11.736;2022-07-29T07:18:58;2.23;;;1.63;;
12267;SDS011;6196;48.398;11.736;2022-07-29T07:21:25;2.23;;;1.60;;
12267;SDS011;6196;48.398;11.736;2022-07-29T07:23:55;3.57;;;1.60;;
12267;SDS011;6196;48.398;11.736;2022-07-29T07:26:22;1.63;;;1.33;;
12267;SDS011;6196;48.398;11.736;2022-07-29T07:28:49;1.50;;;1.40;;
12267;SDS011;6196;48.398;11.736;2022-07-29T07:31:16;2.63;;;1.23;;
12267;SDS011;6196;48.398;11.736;2022-07-29T07:33:43;1.43;;;1.33;;
12267;SDS011;6196;48.398;11.736;2022-07-29T07:36:10;4.33;;;1.60;;
12267;SDS011;6196;48.398;11.736;2022-07-29T07:38:37;1.80;;;1.20;;
12267;SDS011;6196;48.398;11.736;2022-07-29T07:41:04;1.50;;;1.40;;
12267;SDS011;6196;48.398;11.736;2022-07-29T07:43:31;1.70;;;1.50;;
12267;SDS011;6196;48.398;11.736;2022-07-29T07:45:57;1.23;;;1.10;;
12267;SDS011;6196;48.398;11.736;2022-07-29T07:48:24;2.17;;;1.60;;
12267;SDS011;6196;48.398;11.736;2022-07-29T07:50:51;1.50;;;1.20;;
12267;SDS011;6196;48.398;11.736;2022-07-29T07:53:19;1.67;;;1.30;;
12267;SDS011;6196;48.398;11.736;2022-07-29T07:55:47;1.77;;;1.20;;
12267;SDS011;6196;48.398;11.736;2022-07-29T07:58:34;2.47;;;1.30;;
12267;SDS011;6196;48.398;11.736;2022-07-29T08:01:01;1.67;;;1.10;;
12267;SDS011;6196;48.398;11.736;2022-07-29T08:03:28;1.43;;;1.30;;
12267;SDS011;6196;48.398;11.736;2022-07-29T08:05:55;1.20;;;1.00;;
12267;SDS011;6196;48.398;11.736;2022-07-29T08:08:23;1.57;;;1.17;;
12267;SDS011;6196;48.398;11.736;2022-07-29T08:10:50;1.73;;;1.20;;
12267;SDS011;6196;48.398;11.736;2022-07-29T08:13:20;1.30;;;1.20;;
12267;SDS011;6196;48.398;11.736;2022-07-29T08:15:49;3.07;;;1.20;;
12267;SDS011;6196;48.398;11.736;2022-07-29T08:18:30;1.53;;;1.43;;
12267;SDS011;6196;48.398;11.736;2022-07-29T08:20:57;1.50;;;1.38;;
12267;SDS011;6196;48.398;11.736;2022-07-29T08:23:25;1.87;;;1.20;;
12267;SDS011;6196;48.398;11.736;2022-07-29T08:26:11;2.15;;;1.40;;
12267;SDS011;6196;48.398;11.736;2022-07-29T08:28:40;2.85;;;1.40;;
12267;SDS011;6196;48.398;11.736;2022-07-29T08:31:12;4.73;;;1.67;;
12267;SDS011;6196;48.398;11.736;2022-07-29T08:33:39;1.30;;;1.20;;
12267;SDS011;6196;48.398;11.736;2022-07-29T08:36:06;1.50;;;1.30;;
12267;SDS011;6196;48.398;11.736;2022-07-29T08:38:34;3.23;;;1.60;;
12267;SDS011;6196;48.398;11.736;2022-07-29T08:41:01;6.43;;;2.08;;
12267;SDS011;6196;48.398;11.736;2022-07-29T08:43:28;2.47;;;1.60;;
12267;SDS011;6196;48.398;11.736;2022-07-29T08:45:55;3.80;;;1.63;;
12267;SDS011;6196;48.398;11.736;2022-07-29T08:48:22;3.17;;;1.50;;
12267;SDS011;6196;48.398;11.736;2022-07-29T08:50:52;1.87;;;1.77;;
12267;SDS011;6196;48.398;11.736;2022-07-29T08:53:22;5.97;;;1.90;;
12267;SDS011;6196;48.398;11.736;2022-07-29T08:55:52;6.47;;;1.80;;
12267;SDS011;6196;48.398;11.736;2022-07-29T08:58:20;2.28;;;1.70;;
12267;SDS011;6196;48.398;11.736;2022-07-29T09:00:51;4.05;;;1.70;;
12267;SDS011;6196;48.398;11.736;2022-07-29T09:03:24;2.88;;;1.50;;
12267;SDS011;6196;48.398;11.736;2022-07-29T09:06:01;3.15;;;1.65;;
12267;SDS011;6196;48.398;11.736;2022-07-29T09:08:32;3.78;;;1.77;;
12267;SDS011;6196;48.398;11.736;2022-07-29T09:11:00;2.85;;;1.73;;
12267;SDS011;6196;48.398;11.736;2022-07-29T09:13:30;3.15;;;1.27;;
12267;SDS011;6196;48.398;11.736;2022-07-29T09:15:57;2.67;;;1.50;;
12267;SDS011;6196;48.398;11.736;2022-07-29T09:18:38;2.72;;;1.40;;
12267;SDS011;6196;48.398;11.736;2022-07-29T09:21:08;4.05;;;1.50;;
12267;SDS011;6196;48.398;11.736;2022-07-29T09:24:01;1.45;;;1.35;;
12267;SDS011;6196;48.398;11.736;2022-07-29T09:26:38;2.33;;;1.40;;
12267;SDS011;6196;48.398;11.736;2022-07-29T09:29:16;1.70;;;1.20;;
12267;SDS011;6196;48.398;11.736;2022-07-29T09:31:49;1.65;;;1.10;;
12267;SDS011;6196;48.398;11.736;2022-07-29T09:34:25;2.20;;;1.40;;
12267;SDS011;6196;48.398;11.736;2022-07-29T09:36:56;2.42;;;1.60;;
12267;SDS011;6196;48.398;11.736;2022-07-29T09:39:28;1.35;;;1.25;;
12267;SDS011;6196;48.398;11.736;2022-07-29T09:41:58;1.52;;;1.33;;
12267;SDS011;6196;48.398;11.736;2022-07-29T09:44:40;1.65;;;1.30;;
12267;SDS011;6196;48.398;11.736;2022-07-29T09:47:17;1.92;;;1.48;;
12267;SDS011;6196;48.398;11.736;2022-07-29T09:52:27;2.05;;;1.38;;
12267;SDS011;6196;48.398;11.736;2022-07-29T09:55:09;1.70;;;1.40;;
12267;SDS011;6196;48.398;11.736;2022-07-29T09:57:44;1.58;;;1.30;;
12267;SDS011;6196;48.398;11.736;2022-07-29T10:00:13;1.58;;;1.40;;
12267;SDS011;6196;48.398;11.736;2022-07-29T10:02:46;2.35;;;1.70;;
12267;SDS011;6196;48.398;11.736;2022-07-29T10:08:01;1.50;;;1.40;;
12267;SDS011;6196;48.398;11.736;2022-07-29T10:10:29;1.58;;;1.48;;
12267;SDS011;6196;48.398;11.736;2022-07-29T10:13:00;1.75;;;1.50;;
12267;SDS011;6196;48.398;11.736;2022-07-29T10:15:41;2.20;;;1.50;;
12267;SDS011;6196;48.398;11.736;2022-07-29T10:18:11;2.13;;;1.60;;
12267;SDS011;6196;48.398;11.736;2022-07-29T10:20:40;4.25;;;1.52;;
12267;SDS011;6196;48.398;11.736;2022-07-29T10:23:08;2.50;;;1.52;;
12267;SDS011;6196;48.398;11.736;2022-07-29T10:25:35;1.90;;;1.70;;
12267;SDS011;6196;48.398;11.736;2022-07-29T10:28:03;2.80;;;1.80;;
12267;SDS011;6196;48.398;11.736;2022-07-29T10:30:32;2.03;;;1.92;;
12267;SDS011;6196;48.398;11.736;2022-07-29T10:38:52;2.45;;;1.58;;
12267;SDS011;6196;48.398;11.736;2022-07-29T10:42:08;2.55;;;2.13;;
12267;SDS011;6196;48.398;11.736;2022-07-29T10:44:59;3.35;;;1.92;;
12267;SDS011;6196;48.398;11.736;2022-07-29T10:47:27;2.08;;;1.88;;
12267;SDS011;6196;48.398;11.736;2022-07-29T10:49:58;2.25;;;2.05;;
12267;SDS011;6196;48.398;11.736;2022-07-29T10:55:34;4.07;;;2.40;;
12267;SDS011;6196;48.398;11.736;2022-07-29T10:58:12;2.92;;;1.95;;
12267;SDS011;6196;48.398;11.736;2022-07-29T11:00:45;3.80;;;2.20;;
12267;SDS011;6196;48.398;11.736;2022-07-29T11:06:15;2.40;;;2.20;;
12267;SDS011;6196;48.398;11.736;2022-07-29T11:12:04;4.05;;;2.03;;
12267;SDS011;6196;48.398;11.736;2022-07-29T11:15:05;2.25;;;2.05;;
12267;SDS011;6196;48.398;11.736;2022-07-29T11:18:08;2.92;;;2.20;;
12267;SDS011;6196;48.398;11.736;2022-07-29T11:23:21;3.60;;;2.30;;
12267;SDS011;6196;48.398;11.736;2022-07-29T11:31:34;5.18;;;2.30;;
12267;SDS011;6196;48.398;11.736;2022-07-29T11:39:35;3.85;;;2.35;;
12267;SDS011;6196;48.398;11.736;2022-07-29T11:47:57;3.33;;;2.47;;
12267;SDS011;6196;48.398;11.736;2022-07-29T11:50:45;2.67;;;2.47;;
12267;SDS011;6196;48.398;11.736;2022-07-29T11:53:14;2.55;;;2.33;;
12267;SDS011;6196;48.398;11.736;2022-07-29T11:55:41;2.40;;;2.20;;
12267;SDS011;6196;48.398;11.736;2022-07-29T11:58:28;3.53;;;2.33;;
12267;SDS011;6196;48.398;11.736;2022-07-29T12:00:56;3.10;;;2.40;;
12267;SDS011;6196;48.398;11.736;2022-07-29T12:03:30;4.90;;;2.33;;
12267;SDS011;6196;48.398;11.736;2022-07-29T12:06:01;4.28;;;2.30;;
12267;SDS011;6196;48.398;11.736;2022-07-29T12:08:48;3.20;;;2.53;;
12267;SDS011;6196;48.398;11.736;2022-07-29T12:11:18;4.20;;;2.10;;
12267;SDS011;6196;48.398;11.736;2022-07-29T12:13:49;3.72;;;2.30;;
12267;SDS011;6196;48.398;11.736;2022-07-29T12:16:17;2.65;;;2.42;;
12267;SDS011;6196;48.398;11.736;2022-07-29T12:19:04;3.45;;;2.55;;
12267;SDS011;6196;48.398;11.736;2022-07-29T12:21:46;2.47;;;2.28;;
12267;SDS011;6196;48.398;11.736;2022-07-29T12:24:22;2.67;;;2.40;;
12267;SDS011;6196;48.398;11.736;2022-07-29T12:26:56;3.78;;;2.22;;
12267;SDS011;6196;48.398;11.736;2022-07-29T12:29:24;3.92;;;2.58;;
12267;SDS011;6196;48.398;11.736;2022-07-29T12:32:01;4.13;;;2.50;;
12267;SDS011;6196;48.398;11.736;2022-07-29T12:34:40;3.65;;;2.20;;
12267;SDS011;6196;48.398;11.736;2022-07-29T12:37:08;3.53;;;2.10;;
12267;SDS011;6196;48.398;11.736;2022-07-29T12:39:36;3.20;;;2.50;;
12267;SDS011;6196;48.398;11.736;2022-07-29T12:42:13;2.20;;;2.10;;
12267;SDS011;6196;48.398;11.736;2022-07-29T12:44:44;3.90;;;2.05;;
12267;SDS011;6196;48.398;11.736;2022-07-29T12:47:17;2.75;;;2.20;;
12267;SDS011;6196;48.398;11.736;2022-07-29T12:49:46;2.20;;;2.00;;
12267;SDS011;6196;48.398;11.736;2022-07-29T12:52:24;2.92;;;1.92;;
12267;SDS011;6196;48.398;11.736;2022-07-29T12:54:57;3.75;;;1.85;;
12267;SDS011;6196;48.398;11.736;2022-07-29T12:57:48;2.65;;;2.00;;
12267;SDS011;6196;48.398;11.736;2022-07-29T13:00:23;4.32;;;2.00;;
12267;SDS011;6196;48.398;11.736;2022-07-29T13:02:57;3.45;;;1.88;;
12267;SDS011;6196;48.398;11.736;2022-07-29T13:05:44;1.95;;;1.75;;
12267;SDS011;6196;48.398;11.736;2022-07-29T13:08:15;3.08;;;2.20;;
12267;SDS011;6196;48.398;11.736;2022-07-29T13:10:47;2.33;;;1.60;;
12267;SDS011;6196;48.398;11.736;2022-07-29T13:13:14;2.28;;;1.77;;
12267;SDS011;6196;48.398;11.736;2022-07-29T13:15:42;2.20;;;1.80;;
12267;SDS011;6196;48.398;11.736;2022-07-29T13:20:56;1.58;;;1.48;;
12267;SDS011;6196;48.398;11.736;2022-07-29T13:23:24;2.00;;;1.80;;
12267;SDS011;6196;48.398;11.736;2022-07-29T13:25:51;2.10;;;1.90;;
12267;SDS011;6196;48.398;11.736;2022-07-29T13:28:19;4.78;;;1.85;;
12267;SDS011;6196;48.398;11.736;2022-07-29T13:30:47;5.25;;;1.90;;
12267;SDS011;6196;48.398;11.736;2022-07-29T13:33:14;3.55;;;1.80;;
12267;SDS011;6196;48.398;11.736;2022-07-29T13:35:41;3.20;;;2.05;;
12267;SDS011;6196;48.398;11.736;2022-07-29T13:38:08;4.30;;;2.00;;
12267;SDS011;6196;48.398;11.736;2022-07-29T13:40:35;2.58;;;1.90;;
12267;SDS011;6196;48.398;11.736;2022-07-29T13:43:03;2.33;;;2.00;;
12267;SDS011;6196;48.398;11.736;2022-07-29T13:45:30;2.88;;;1.92;;
12267;SDS011;6196;48.398;11.736;2022-07-29T13:47:57;2.47;;;1.85;;
12267;SDS011;6196;48.398;11.736;2022-07-29T13:50:23;2.58;;;2.10;;
12267;SDS011;6196;48.398;11.736;2022-07-29T13:52:50;3.80;;;2.10;;
12267;SDS011;6196;48.398;11.736;2022-07-29T13:55:17;2.42;;;1.63;;
12267;SDS011;6196;48.398;11.736;2022-07-29T13:57:45;4.35;;;2.08;;
12267;SDS011;6196;48.398;11.736;2022-07-29T14:00:12;3.55;;;1.92;;
12267;SDS011;6196;48.398;11.736;2022-07-29T14:02:39;4.57;;;2.15;;
12267;SDS011;6196;48.398;11.736;2022-07-29T14:05:07;2.60;;;1.98;;
12267;SDS011;6196;48.398;11.736;2022-07-29T14:07:36;2.40;;;1.93;;
12267;SDS011;6196;48.398;11.736;2022-07-29T14:10:07;4.43;;;2.00;;
12267;SDS011;6196;48.398;11.736;2022-07-29T14:12:35;7.07;;;2.10;;
12267;SDS011;6196;48.398;11.736;2022-07-29T14:15:02;4.00;;;2.30;;
12267;SDS011;6196;48.398;11.736;2022-07-29T14:17:29;3.03;;;2.00;;
12267;SDS011;6196;48.398;11.736;2022-07-29T14:19:56;4.15;;;1.88;;
12267;SDS011;6196;48.398;11.736;2022-07-29T14:22:35;2.05;;;1.80;;
12267;SDS011;6196;48.398;11.736;2022-07-29T14:25:08;2.30;;;1.90;;
12267;SDS011;6196;48.398;11.736;2022-07-29T14:27:40;2.95;;;2.08;;
12267;SDS011;6196;48.398;11.736;2022-07-29T14:30:09;3.37;;;2.00;;
12267;SDS011;6196;48.398;11.736;2022-07-29T14:32:36;3.00;;;2.00;;
12267;SDS011;6196;48.398;11.736;2022-07-29T14:35:03;2.85;;;1.90;;
12267;SDS011;6196;48.398;11.736;2022-07-29T14:37:31;3.28;;;2.20;;
12267;SDS011;6196;48.398;11.736;2022-07-29T14:40:06;3.38;;;2.00;;
12267;SDS011;6196;48.398;11.736;2022-07-29T14:42:34;5.75;;;2.08;;
12267;SDS011;6196;48.398;11.736;2022-07-29T14:45:03;5.18;;;2.10;;
12267;SDS011;6196;48.398;11.736;2022-07-29T14:47:33;2.40;;;2.03;;
12267;SDS011;6196;48.398;11.736;2022-07-29T14:50:00;3.15;;;1.98;;
12267;SDS011;6196;48.398;11.736;2022-07-29T14:52:27;3.93;;;1.93;;
12267;SDS011;6196;48.398;11.736;2022-07-29T14:54:54;2.20;;;2.00;;
12267;SDS011;6196;48.398;11.736;2022-07-29T14:57:21;2.90;;;2.00;;
12267;SDS011;6196;48.398;11.736;2022-07-29T14:59:48;4.70;;;2.07;;
12267;SDS011;6196;48.398;11.736;2022-07-29T15:02:15;2.47;;;2.23;;
12267;SDS011;6196;48.398;11.736;2022-07-29T15:04:42;4.07;;;2.43;;
12267;SDS011;6196;48.398;11.736;2022-07-29T15:07:09;5.67;;;1.90;;
12267;SDS011;6196;48.398;11.736;2022-07-29T15:09:36;4.37;;;2.20;;
12267;SDS011;6196;48.398;11.736;2022-07-29T15:12:15;2.53;;;2.33;;
12267;SDS011;6196;48.398;11.736;2022-07-29T15:14:42;3.03;;;2.47;;
12267;SDS011;6196;48.398;11.736;2022-07-29T15:17:09;3.50;;;2.20;;
12267;SDS011;6196;48.398;11.736;2022-07-29T15:19:36;4.37;;;2.40;;
12267;SDS011;6196;48.398;11.736;2022-07-29T15:22:09;3.03;;;2.00;;
12267;SDS011;6196;48.398;11.736;2022-07-29T15:24:36;3.30;;;2.17;;
12267;SDS011;6196;48.398;11.736;2022-07-29T15:27:03;4.00;;;1.80;;
12267;SDS011;6196;48.398;11.736;2022-07-29T15:29:30;2.30;;;2.10;;
12267;SDS011;6196;48.398;11.736;2022-07-29T15:31:57;3.23;;;2.20;;
12267;SDS011;6196;48.398;11.736;2022-07-29T15:34:25;2.63;;;2.00;;
12267;SDS011;6196;48.398;11.736;2022-07-29T15:36:52;4.63;;;2.10;;
12267;SDS011;6196;48.398;11.736;2022-07-29T15:39:20;6.60;;;2.23;;
12267;SDS011;6196;48.398;11.736;2022-07-29T15:41:48;3.90;;;2.27;;
12267;SDS011;6196;48.398;11.736;2022-07-29T15:44:16;3.27;;;2.43;;
12267;SDS011;6196;48.398;11.736;2022-07-29T15:46:43;4.17;;;2.60;;
12267;SDS011;6196;48.398;11.736;2022-07-29T15:49:36;3.87;;;2.30;;
12267;SDS011;6196;48.398;11.736;2022-07-29T15:52:15;4.23;;;2.50;;
12267;SDS011;6196;48.398;11.736;2022-07-29T15:54:51;4.27;;;2.50;;
12267;SDS011;6196;48.398;11.736;2022-07-29T15:57:23;2.97;;;2.40;;
12267;SDS011;6196;48.398;11.736;2022-07-29T15:59:50;2.67;;;2.30;;
12267;SDS011;6196;48.398;11.736;2022-07-29T16:02:17;5.90;;;2.30;;